sensor_id;sensor_type;location;lat;lon;timestamp;P1;durP1;ratioP1;P2;durP2;ratioP2
42704;SDS011;28342;42.594;23.414;2023-07-28T00:01:00;2.35;;;2.15;;
42704;SDS011;28342;42.594;23.414;2023-07-28T00:03:25;2.50;;;2.30;;
42704;SDS011;28342;42.594;23.414;2023-07-28T00:05:51;2.03;;;1.90;;
42704;SDS011;28342;42.594;23.414;2023-07-28T00:08:16;3.92;;;2.75;;
42704;SDS011;28342;42.594;23.414;2023-07-28T00:10:41;2.33;;;2.10;;
42704;SDS011;28342;42.594;23.414;2023-07-28T00:13:08;2.38;;;2.13;;
42704;SDS011;28342;42.594;23.414;2023-07-28T00:15:33;2.78;;;2.33;;
42704;SDS011;28342;42.594;23.414;2023-07-28T00:17:59;4.40;;;1.98;;
42704;SDS011;28342;42.594;23.414;2023-07-28T00:20:27;2.90;;;2.50;;
42704;SDS011;28342;42.594;23.414;2023-07-28T00:22:53;3.22;;;2.78;;
42704;SDS011;28342;42.594;23.414;2023-07-28T00:25:18;3.30;;;2.50;;
42704;SDS011;28342;42.594;23.414;2023-07-28T00:27:44;2.28;;;2.08;;
42704;SDS011;28342;42.594;23.414;2023-07-28T00:30:10;2.72;;;1.90;;
42704;SDS011;28342;42.594;23.414;2023-07-28T00:32:36;2.47;;;1.98;;
42704;SDS011;28342;42.594;23.414;2023-07-28T00:35:02;2.72;;;2.28;;
42704;SDS011;28342;42.594;23.414;2023-07-28T00:37:27;2.17;;;1.98;;
42704;SDS011;28342;42.594;23.414;2023-07-28T00:39:53;2.67;;;2.45;;
42704;SDS011;28342;42.594;23.414;2023-07-28T00:42:18;3.95;;;2.40;;
42704;SDS011;28342;42.594;23.414;2023-07-28T00:44:44;2.53;;;2.05;;
42704;SDS011;28342;42.594;23.414;2023-07-28T00:47:09;3.10;;;2.30;;
42704;SDS011;28342;42.594;23.414;2023-07-28T00:49:35;2.58;;;2.35;;
42704;SDS011;28342;42.594;23.414;2023-07-28T00:52:00;2.20;;;1.98;;
42704;SDS011;28342;42.594;23.414;2023-07-28T00:54:26;2.30;;;1.70;;
42704;SDS011;28342;42.594;23.414;2023-07-28T00:56:52;2.40;;;2.05;;
42704;SDS011;28342;42.594;23.414;2023-07-28T00:59:17;2.70;;;2.13;;
42704;SDS011;28342;42.594;23.414;2023-07-28T01:01:43;2.63;;;2.38;;
42704;SDS011;28342;42.594;23.414;2023-07-28T01:04:08;2.53;;;2.30;;
42704;SDS011;28342;42.594;23.414;2023-07-28T01:09:12;2.17;;;1.98;;
42704;SDS011;28342;42.594;23.414;2023-07-28T01:11:52;3.22;;;2.20;;
42704;SDS011;28342;42.594;23.414;2023-07-28T01:14:25;2.78;;;2.10;;
42704;SDS011;28342;42.594;23.414;2023-07-28T01:16:51;2.95;;;2.20;;
42704;SDS011;28342;42.594;23.414;2023-07-28T01:19:17;3.72;;;2.60;;
42704;SDS011;28342;42.594;23.414;2023-07-28T01:21:45;2.65;;;2.45;;
42704;SDS011;28342;42.594;23.414;2023-07-28T01:24:21;2.22;;;2.00;;
42704;SDS011;28342;42.594;23.414;2023-07-28T01:27:03;2.40;;;2.10;;
42704;SDS011;28342;42.594;23.414;2023-07-28T01:29:29;2.65;;;2.45;;
42704;SDS011;28342;42.594;23.414;2023-07-28T01:31:58;7.07;;;2.25;;
42704;SDS011;28342;42.594;23.414;2023-07-28T01:34:24;2.38;;;2.17;;
42704;SDS011;28342;42.594;23.414;2023-07-28T01:36:50;2.85;;;2.22;;
42704;SDS011;28342;42.594;23.414;2023-07-28T01:39:15;5.25;;;2.53;;
42704;SDS011;28342;42.594;23.414;2023-07-28T01:41:41;2.30;;;2.00;;
42704;SDS011;28342;42.594;23.414;2023-07-28T01:44:08;3.58;;;2.78;;
42704;SDS011;28342;42.594;23.414;2023-07-28T01:46:34;4.13;;;2.10;;
42704;SDS011;28342;42.594;23.414;2023-07-28T01:49:00;4.43;;;2.40;;
42704;SDS011;28342;42.594;23.414;2023-07-28T01:51:25;6.05;;;2.70;;
42704;SDS011;28342;42.594;23.414;2023-07-28T01:53:51;2.30;;;2.10;;
42704;SDS011;28342;42.594;23.414;2023-07-28T01:56:16;2.97;;;2.33;;
42704;SDS011;28342;42.594;23.414;2023-07-28T01:58:41;2.72;;;2.45;;
42704;SDS011;28342;42.594;23.414;2023-07-28T02:01:07;2.20;;;2.00;;
42704;SDS011;28342;42.594;23.414;2023-07-28T02:03:32;1.98;;;1.88;;
42704;SDS011;28342;42.594;23.414;2023-07-28T02:05:58;2.25;;;2.08;;
42704;SDS011;28342;42.594;23.414;2023-07-28T02:08:26;2.42;;;2.08;;
42704;SDS011;28342;42.594;23.414;2023-07-28T02:10:53;3.83;;;2.53;;
42704;SDS011;28342;42.594;23.414;2023-07-28T02:13:18;2.33;;;2.13;;
42704;SDS011;28342;42.594;23.414;2023-07-28T02:15:44;4.72;;;2.63;;
42704;SDS011;28342;42.594;23.414;2023-07-28T02:18:09;3.72;;;2.25;;
42704;SDS011;28342;42.594;23.414;2023-07-28T02:20:35;3.55;;;2.30;;
42704;SDS011;28342;42.594;23.414;2023-07-28T02:23:01;3.25;;;1.98;;
42704;SDS011;28342;42.594;23.414;2023-07-28T02:25:27;2.60;;;2.13;;
42704;SDS011;28342;42.594;23.414;2023-07-28T02:27:52;2.65;;;2.28;;
42704;SDS011;28342;42.594;23.414;2023-07-28T02:30:18;3.08;;;2.17;;
42704;SDS011;28342;42.594;23.414;2023-07-28T02:32:43;2.85;;;2.22;;
42704;SDS011;28342;42.594;23.414;2023-07-28T02:35:08;3.08;;;2.45;;
42704;SDS011;28342;42.594;23.414;2023-07-28T02:37:35;8.40;;;2.47;;
42704;SDS011;28342;42.594;23.414;2023-07-28T02:40:01;2.95;;;2.50;;
42704;SDS011;28342;42.594;23.414;2023-07-28T02:42:26;2.63;;;2.40;;
42704;SDS011;28342;42.594;23.414;2023-07-28T02:44:52;2.53;;;2.00;;
42704;SDS011;28342;42.594;23.414;2023-07-28T02:47:17;4.22;;;2.47;;
42704;SDS011;28342;42.594;23.414;2023-07-28T02:49:43;4.22;;;2.70;;
42704;SDS011;28342;42.594;23.414;2023-07-28T02:52:08;2.97;;;2.40;;
42704;SDS011;28342;42.594;23.414;2023-07-28T02:54:34;5.88;;;2.58;;
42704;SDS011;28342;42.594;23.414;2023-07-28T02:56:59;2.45;;;2.25;;
42704;SDS011;28342;42.594;23.414;2023-07-28T02:59:24;4.40;;;2.70;;
42704;SDS011;28342;42.594;23.414;2023-07-28T03:01:50;2.78;;;2.55;;
42704;SDS011;28342;42.594;23.414;2023-07-28T03:04:17;2.97;;;2.58;;
42704;SDS011;28342;42.594;23.414;2023-07-28T03:06:45;2.67;;;2.47;;
42704;SDS011;28342;42.594;23.414;2023-07-28T03:09:10;2.92;;;2.30;;
42704;SDS011;28342;42.594;23.414;2023-07-28T03:11:36;3.97;;;2.47;;
42704;SDS011;28342;42.594;23.414;2023-07-28T03:14:01;3.15;;;2.58;;
42704;SDS011;28342;42.594;23.414;2023-07-28T03:16:27;2.72;;;2.45;;
42704;SDS011;28342;42.594;23.414;2023-07-28T03:18:53;4.18;;;2.97;;
42704;SDS011;28342;42.594;23.414;2023-07-28T03:21:18;3.10;;;2.40;;
42704;SDS011;28342;42.594;23.414;2023-07-28T03:23:44;2.97;;;2.50;;
42704;SDS011;28342;42.594;23.414;2023-07-28T03:26:09;4.45;;;2.17;;
42704;SDS011;28342;42.594;23.414;2023-07-28T03:28:34;2.33;;;2.13;;
42704;SDS011;28342;42.594;23.414;2023-07-28T03:31:00;7.28;;;3.97;;
42704;SDS011;28342;42.594;23.414;2023-07-28T03:33:26;3.42;;;3.08;;
42704;SDS011;28342;42.594;23.414;2023-07-28T03:35:51;3.55;;;2.38;;
42704;SDS011;28342;42.594;23.414;2023-07-28T03:38:16;6.00;;;2.50;;
42704;SDS011;28342;42.594;23.414;2023-07-28T03:40:43;3.42;;;2.80;;
42704;SDS011;28342;42.594;23.414;2023-07-28T03:43:09;4.18;;;2.35;;
42704;SDS011;28342;42.594;23.414;2023-07-28T03:45:34;3.47;;;2.70;;
42704;SDS011;28342;42.594;23.414;2023-07-28T03:48:00;4.25;;;2.35;;
42704;SDS011;28342;42.594;23.414;2023-07-28T03:50:25;3.28;;;2.67;;
42704;SDS011;28342;42.594;23.414;2023-07-28T03:52:51;4.38;;;2.65;;
42704;SDS011;28342;42.594;23.414;2023-07-28T03:55:17;8.13;;;2.72;;
42704;SDS011;28342;42.594;23.414;2023-07-28T03:57:42;2.47;;;2.20;;
42704;SDS011;28342;42.594;23.414;2023-07-28T04:00:08;2.55;;;2.33;;
42704;SDS011;28342;42.594;23.414;2023-07-28T04:02:33;2.15;;;1.92;;
42704;SDS011;28342;42.594;23.414;2023-07-28T04:04:59;3.40;;;2.67;;
42704;SDS011;28342;42.594;23.414;2023-07-28T04:07:24;4.05;;;3.28;;
42704;SDS011;28342;42.594;23.414;2023-07-28T04:09:50;2.35;;;2.15;;
42704;SDS011;28342;42.594;23.414;2023-07-28T04:12:15;2.75;;;2.13;;
42704;SDS011;28342;42.594;23.414;2023-07-28T04:14:40;3.83;;;2.47;;
42704;SDS011;28342;42.594;23.414;2023-07-28T04:17:06;4.53;;;2.42;;
42704;SDS011;28342;42.594;23.414;2023-07-28T04:19:32;2.95;;;2.58;;
42704;SDS011;28342;42.594;23.414;2023-07-28T04:21:59;4.97;;;3.08;;
42704;SDS011;28342;42.594;23.414;2023-07-28T04:24:25;2.40;;;2.08;;
42704;SDS011;28342;42.594;23.414;2023-07-28T04:26:50;2.88;;;2.28;;
42704;SDS011;28342;42.594;23.414;2023-07-28T04:29:16;8.48;;;3.20;;
42704;SDS011;28342;42.594;23.414;2023-07-28T04:31:41;4.80;;;2.60;;
42704;SDS011;28342;42.594;23.414;2023-07-28T04:34:07;5.57;;;2.53;;
42704;SDS011;28342;42.594;23.414;2023-07-28T04:36:32;3.53;;;2.65;;
42704;SDS011;28342;42.594;23.414;2023-07-28T04:38:58;2.85;;;2.50;;
42704;SDS011;28342;42.594;23.414;2023-07-28T04:41:23;3.60;;;2.80;;
42704;SDS011;28342;42.594;23.414;2023-07-28T04:43:49;4.43;;;2.53;;
42704;SDS011;28342;42.594;23.414;2023-07-28T04:46:14;3.85;;;2.90;;
42704;SDS011;28342;42.594;23.414;2023-07-28T04:48:39;5.10;;;2.15;;
42704;SDS011;28342;42.594;23.414;2023-07-28T04:51:05;4.75;;;2.83;;
42704;SDS011;28342;42.594;23.414;2023-07-28T04:53:30;2.33;;;2.08;;
42704;SDS011;28342;42.594;23.414;2023-07-28T04:56:03;5.40;;;2.00;;
42704;SDS011;28342;42.594;23.414;2023-07-28T04:58:30;2.25;;;2.05;;
42704;SDS011;28342;42.594;23.414;2023-07-28T05:00:55;2.60;;;2.30;;
42704;SDS011;28342;42.594;23.414;2023-07-28T05:03:21;4.10;;;2.45;;
42704;SDS011;28342;42.594;23.414;2023-07-28T05:05:46;4.05;;;2.42;;
42704;SDS011;28342;42.594;23.414;2023-07-28T05:08:12;2.53;;;2.30;;
42704;SDS011;28342;42.594;23.414;2023-07-28T05:10:40;3.58;;;2.13;;
42704;SDS011;28342;42.594;23.414;2023-07-28T05:13:06;3.72;;;2.60;;
42704;SDS011;28342;42.594;23.414;2023-07-28T05:15:32;2.72;;;2.15;;
42704;SDS011;28342;42.594;23.414;2023-07-28T05:17:57;2.63;;;1.88;;
42704;SDS011;28342;42.594;23.414;2023-07-28T05:20:25;2.42;;;2.03;;
42704;SDS011;28342;42.594;23.414;2023-07-28T05:22:50;3.03;;;2.28;;
42704;SDS011;28342;42.594;23.414;2023-07-28T05:25:16;2.45;;;2.08;;
42704;SDS011;28342;42.594;23.414;2023-07-28T05:27:41;3.30;;;2.15;;
42704;SDS011;28342;42.594;23.414;2023-07-28T05:30:07;3.50;;;1.92;;
42704;SDS011;28342;42.594;23.414;2023-07-28T05:32:33;2.10;;;1.88;;
42704;SDS011;28342;42.594;23.414;2023-07-28T05:34:58;2.35;;;1.98;;
42704;SDS011;28342;42.594;23.414;2023-07-28T05:37:24;2.35;;;2.03;;
42704;SDS011;28342;42.594;23.414;2023-07-28T05:39:49;1.90;;;1.77;;
42704;SDS011;28342;42.594;23.414;2023-07-28T05:42:17;1.80;;;1.70;;
42704;SDS011;28342;42.594;23.414;2023-07-28T05:44:42;3.03;;;2.33;;
42704;SDS011;28342;42.594;23.414;2023-07-28T05:47:08;3.40;;;2.08;;
42704;SDS011;28342;42.594;23.414;2023-07-28T05:49:34;2.25;;;2.05;;
42704;SDS011;28342;42.594;23.414;2023-07-28T05:52:01;3.28;;;2.15;;
42704;SDS011;28342;42.594;23.414;2023-07-28T05:54:26;2.45;;;2.08;;
42704;SDS011;28342;42.594;23.414;2023-07-28T05:56:52;1.80;;;1.70;;
42704;SDS011;28342;42.594;23.414;2023-07-28T05:59:17;2.72;;;1.85;;
42704;SDS011;28342;42.594;23.414;2023-07-28T06:01:44;3.33;;;2.38;;
42704;SDS011;28342;42.594;23.414;2023-07-28T06:04:10;4.82;;;2.00;;
42704;SDS011;28342;42.594;23.414;2023-07-28T06:06:35;2.42;;;1.88;;
42704;SDS011;28342;42.594;23.414;2023-07-28T06:09:00;3.28;;;2.10;;
42704;SDS011;28342;42.594;23.414;2023-07-28T06:11:26;2.13;;;1.98;;
42704;SDS011;28342;42.594;23.414;2023-07-28T06:13:51;3.20;;;2.40;;
42704;SDS011;28342;42.594;23.414;2023-07-28T06:16:18;4.50;;;2.15;;
42704;SDS011;28342;42.594;23.414;2023-07-28T06:18:45;3.22;;;2.47;;
42704;SDS011;28342;42.594;23.414;2023-07-28T06:21:11;2.63;;;2.38;;
42704;SDS011;28342;42.594;23.414;2023-07-28T06:23:36;7.82;;;2.22;;
42704;SDS011;28342;42.594;23.414;2023-07-28T06:29:31;2.30;;;2.13;;
42704;SDS011;28342;42.594;23.414;2023-07-28T06:34:41;5.87;;;2.30;;
42704;SDS011;28342;42.594;23.414;2023-07-28T06:37:08;5.57;;;2.65;;
42704;SDS011;28342;42.594;23.414;2023-07-28T06:39:39;3.38;;;2.50;;
42704;SDS011;28342;42.594;23.414;2023-07-28T06:42:04;3.10;;;2.60;;
42704;SDS011;28342;42.594;23.414;2023-07-28T06:44:30;6.55;;;2.88;;
42704;SDS011;28342;42.594;23.414;2023-07-28T06:46:56;5.63;;;2.60;;
42704;SDS011;28342;42.594;23.414;2023-07-28T06:49:22;6.68;;;2.65;;
42704;SDS011;28342;42.594;23.414;2023-07-28T06:51:48;6.32;;;2.47;;
42704;SDS011;28342;42.594;23.414;2023-07-28T06:54:14;5.30;;;2.17;;
42704;SDS011;28342;42.594;23.414;2023-07-28T06:56:43;7.35;;;2.75;;
42704;SDS011;28342;42.594;23.414;2023-07-28T07:02:10;6.90;;;2.60;;
42704;SDS011;28342;42.594;23.414;2023-07-28T07:04:36;3.42;;;2.00;;
42704;SDS011;28342;42.594;23.414;2023-07-28T07:07:03;2.75;;;2.08;;
42704;SDS011;28342;42.594;23.414;2023-07-28T07:09:34;4.00;;;2.40;;
42704;SDS011;28342;42.594;23.414;2023-07-28T07:12:02;4.70;;;2.30;;
42704;SDS011;28342;42.594;23.414;2023-07-28T07:14:31;3.33;;;2.45;;
42704;SDS011;28342;42.594;23.414;2023-07-28T07:17:05;5.53;;;2.28;;
42704;SDS011;28342;42.594;23.414;2023-07-28T07:19:32;3.53;;;1.77;;
42704;SDS011;28342;42.594;23.414;2023-07-28T07:21:57;2.55;;;2.00;;
42704;SDS011;28342;42.594;23.414;2023-07-28T07:24:22;3.28;;;1.95;;
42704;SDS011;28342;42.594;23.414;2023-07-28T07:26:48;13.68;;;2.20;;
42704;SDS011;28342;42.594;23.414;2023-07-28T07:29:14;6.15;;;1.60;;
42704;SDS011;28342;42.594;23.414;2023-07-28T07:31:40;2.47;;;1.98;;
42704;SDS011;28342;42.594;23.414;2023-07-28T07:34:06;3.75;;;1.90;;
42704;SDS011;28342;42.594;23.414;2023-07-28T07:37:05;4.57;;;2.08;;
42704;SDS011;28342;42.594;23.414;2023-07-28T07:40:05;2.40;;;1.95;;
42704;SDS011;28342;42.594;23.414;2023-07-28T07:42:48;5.22;;;2.40;;
42704;SDS011;28342;42.594;23.414;2023-07-28T07:45:18;5.72;;;1.90;;
42704;SDS011;28342;42.594;23.414;2023-07-28T07:47:59;5.43;;;2.00;;
42704;SDS011;28342;42.594;23.414;2023-07-28T07:51:13;2.03;;;1.73;;
42704;SDS011;28342;42.594;23.414;2023-07-28T07:54:00;4.25;;;1.95;;
42704;SDS011;28342;42.594;23.414;2023-07-28T07:56:29;3.22;;;2.08;;
42704;SDS011;28342;42.594;23.414;2023-07-28T07:58:54;2.03;;;1.73;;
42704;SDS011;28342;42.594;23.414;2023-07-28T08:01:25;4.28;;;1.60;;
42704;SDS011;28342;42.594;23.414;2023-07-28T08:04:00;3.03;;;1.77;;
42704;SDS011;28342;42.594;23.414;2023-07-28T08:06:27;5.85;;;1.85;;
42704;SDS011;28342;42.594;23.414;2023-07-28T08:08:54;5.07;;;1.83;;
42704;SDS011;28342;42.594;23.414;2023-07-28T08:11:23;3.17;;;1.60;;
42704;SDS011;28342;42.594;23.414;2023-07-28T08:13:50;4.18;;;2.22;;
42704;SDS011;28342;42.594;23.414;2023-07-28T08:16:16;6.35;;;2.05;;
42704;SDS011;28342;42.594;23.414;2023-07-28T08:18:43;3.28;;;1.77;;
42704;SDS011;28342;42.594;23.414;2023-07-28T08:21:08;2.03;;;1.52;;
42704;SDS011;28342;42.594;23.414;2023-07-28T08:23:35;3.17;;;1.70;;
42704;SDS011;28342;42.594;23.414;2023-07-28T08:26:01;2.38;;;1.77;;
42704;SDS011;28342;42.594;23.414;2023-07-28T08:28:26;2.60;;;1.75;;
42704;SDS011;28342;42.594;23.414;2023-07-28T08:30:55;1.67;;;1.45;;
42704;SDS011;28342;42.594;23.414;2023-07-28T08:33:24;5.13;;;1.50;;
42704;SDS011;28342;42.594;23.414;2023-07-28T08:35:50;2.90;;;1.95;;
42704;SDS011;28342;42.594;23.414;2023-07-28T08:38:17;1.63;;;1.50;;
42704;SDS011;28342;42.594;23.414;2023-07-28T08:40:43;4.47;;;1.52;;
42704;SDS011;28342;42.594;23.414;2023-07-28T08:43:10;1.92;;;1.50;;
42704;SDS011;28342;42.594;23.414;2023-07-28T08:45:35;2.47;;;1.58;;
42704;SDS011;28342;42.594;23.414;2023-07-28T08:48:01;1.77;;;1.45;;
42704;SDS011;28342;42.594;23.414;2023-07-28T08:50:27;1.63;;;1.52;;
42704;SDS011;28342;42.594;23.414;2023-07-28T08:52:53;1.85;;;1.73;;
42704;SDS011;28342;42.594;23.414;2023-07-28T08:55:19;1.95;;;1.33;;
42704;SDS011;28342;42.594;23.414;2023-07-28T08:57:46;2.08;;;1.50;;
42704;SDS011;28342;42.594;23.414;2023-07-28T09:00:12;4.03;;;1.92;;
42704;SDS011;28342;42.594;23.414;2023-07-28T09:02:41;1.40;;;1.30;;
42704;SDS011;28342;42.594;23.414;2023-07-28T09:05:07;1.67;;;1.50;;
42704;SDS011;28342;42.594;23.414;2023-07-28T09:07:42;2.08;;;1.58;;
42704;SDS011;28342;42.594;23.414;2023-07-28T09:10:08;2.38;;;1.77;;
42704;SDS011;28342;42.594;23.414;2023-07-28T09:12:33;2.20;;;1.58;;
42704;SDS011;28342;42.594;23.414;2023-07-28T09:14:59;1.95;;;1.40;;
42704;SDS011;28342;42.594;23.414;2023-07-28T09:17:25;6.32;;;1.80;;
42704;SDS011;28342;42.594;23.414;2023-07-28T09:19:51;2.85;;;1.50;;
42704;SDS011;28342;42.594;23.414;2023-07-28T09:22:17;2.67;;;1.48;;
42704;SDS011;28342;42.594;23.414;2023-07-28T09:24:44;3.83;;;1.65;;
42704;SDS011;28342;42.594;23.414;2023-07-28T09:27:18;1.85;;;1.33;;
42704;SDS011;28342;42.594;23.414;2023-07-28T09:29:48;1.42;;;1.33;;
42704;SDS011;28342;42.594;23.414;2023-07-28T09:32:15;2.55;;;1.48;;
42704;SDS011;28342;42.594;23.414;2023-07-28T09:34:40;3.15;;;1.50;;
42704;SDS011;28342;42.594;23.414;2023-07-28T09:37:06;3.42;;;1.60;;
42704;SDS011;28342;42.594;23.414;2023-07-28T09:39:35;1.80;;;1.50;;
42704;SDS011;28342;42.594;23.414;2023-07-28T09:42:01;2.38;;;1.58;;
42704;SDS011;28342;42.594;23.414;2023-07-28T09:44:27;4.43;;;1.30;;
42704;SDS011;28342;42.594;23.414;2023-07-28T09:46:53;1.58;;;1.42;;
42704;SDS011;28342;42.594;23.414;2023-07-28T09:49:36;2.83;;;1.50;;
42704;SDS011;28342;42.594;23.414;2023-07-28T09:52:05;4.43;;;1.50;;
42704;SDS011;28342;42.594;23.414;2023-07-28T09:54:34;1.60;;;1.20;;
42704;SDS011;28342;42.594;23.414;2023-07-28T09:57:07;1.63;;;1.45;;
42704;SDS011;28342;42.594;23.414;2023-07-28T09:59:38;1.88;;;1.40;;
42704;SDS011;28342;42.594;23.414;2023-07-28T10:02:05;1.35;;;1.13;;
42704;SDS011;28342;42.594;23.414;2023-07-28T10:04:31;2.72;;;1.30;;
42704;SDS011;28342;42.594;23.414;2023-07-28T10:06:57;1.52;;;1.40;;
42704;SDS011;28342;42.594;23.414;2023-07-28T10:09:24;1.98;;;1.30;;
42704;SDS011;28342;42.594;23.414;2023-07-28T10:11:51;2.00;;;1.20;;
42704;SDS011;28342;42.594;23.414;2023-07-28T10:14:36;1.35;;;1.13;;
42704;SDS011;28342;42.594;23.414;2023-07-28T10:17:03;1.70;;;1.60;;
42704;SDS011;28342;42.594;23.414;2023-07-28T10:19:29;2.88;;;1.70;;
42704;SDS011;28342;42.594;23.414;2023-07-28T10:22:01;1.77;;;1.40;;
42704;SDS011;28342;42.594;23.414;2023-07-28T10:30:11;2.65;;;1.88;;
42704;SDS011;28342;42.594;23.414;2023-07-28T10:32:38;3.03;;;1.70;;
42704;SDS011;28342;42.594;23.414;2023-07-28T10:37:36;1.92;;;1.70;;
42704;SDS011;28342;42.594;23.414;2023-07-28T10:42:57;2.58;;;1.73;;
42704;SDS011;28342;42.594;23.414;2023-07-28T10:45:24;1.15;;;1.08;;
42704;SDS011;28342;42.594;23.414;2023-07-28T10:47:52;2.22;;;1.35;;
42704;SDS011;28342;42.594;23.414;2023-07-28T10:50:20;2.65;;;1.48;;
42704;SDS011;28342;42.594;23.414;2023-07-28T10:52:46;2.67;;;1.60;;
42704;SDS011;28342;42.594;23.414;2023-07-28T10:55:19;1.45;;;1.30;;
42704;SDS011;28342;42.594;23.414;2023-07-28T10:57:46;1.77;;;1.55;;
42704;SDS011;28342;42.594;23.414;2023-07-28T11:00:14;2.58;;;1.60;;
42704;SDS011;28342;42.594;23.414;2023-07-28T11:02:47;1.70;;;1.60;;
42704;SDS011;28342;42.594;23.414;2023-07-28T11:05:22;3.03;;;1.65;;
42704;SDS011;28342;42.594;23.414;2023-07-28T11:07:50;2.22;;;1.48;;
42704;SDS011;28342;42.594;23.414;2023-07-28T11:10:17;2.63;;;1.52;;
42704;SDS011;28342;42.594;23.414;2023-07-28T11:12:45;2.92;;;1.50;;
42704;SDS011;28342;42.594;23.414;2023-07-28T11:15:12;2.85;;;1.75;;
42704;SDS011;28342;42.594;23.414;2023-07-28T11:17:46;2.50;;;1.80;;
42704;SDS011;28342;42.594;23.414;2023-07-28T11:22:47;2.70;;;1.55;;
42704;SDS011;28342;42.594;23.414;2023-07-28T11:25:17;4.88;;;1.73;;
42704;SDS011;28342;42.594;23.414;2023-07-28T11:27:43;2.10;;;1.33;;
42704;SDS011;28342;42.594;23.414;2023-07-28T11:30:13;3.50;;;1.70;;
42704;SDS011;28342;42.594;23.414;2023-07-28T11:32:41;2.95;;;1.70;;
42704;SDS011;28342;42.594;23.414;2023-07-28T11:35:08;2.05;;;1.55;;
42704;SDS011;28342;42.594;23.414;2023-07-28T11:37:37;2.67;;;1.52;;
42704;SDS011;28342;42.594;23.414;2023-07-28T11:40:04;2.25;;;2.00;;
42704;SDS011;28342;42.594;23.414;2023-07-28T11:42:54;2.28;;;1.95;;
42704;SDS011;28342;42.594;23.414;2023-07-28T11:45:21;2.70;;;1.65;;
42704;SDS011;28342;42.594;23.414;2023-07-28T11:50:37;2.13;;;1.55;;
42704;SDS011;28342;42.594;23.414;2023-07-28T11:53:04;3.33;;;1.80;;
42704;SDS011;28342;42.594;23.414;2023-07-28T11:55:31;3.38;;;1.70;;
42704;SDS011;28342;42.594;23.414;2023-07-28T11:57:57;2.30;;;1.70;;
42704;SDS011;28342;42.594;23.414;2023-07-28T12:00:29;2.35;;;1.75;;
42704;SDS011;28342;42.594;23.414;2023-07-28T12:03:04;5.47;;;2.00;;
42704;SDS011;28342;42.594;23.414;2023-07-28T12:05:34;2.05;;;1.60;;
42704;SDS011;28342;42.594;23.414;2023-07-28T12:08:00;1.95;;;1.65;;
42704;SDS011;28342;42.594;23.414;2023-07-28T12:10:28;3.53;;;1.73;;
42704;SDS011;28342;42.594;23.414;2023-07-28T12:12:55;5.00;;;1.60;;
42704;SDS011;28342;42.594;23.414;2023-07-28T12:15:25;3.75;;;1.52;;
42704;SDS011;28342;42.594;23.414;2023-07-28T12:20:47;2.00;;;1.70;;
42704;SDS011;28342;42.594;23.414;2023-07-28T12:23:18;2.17;;;1.58;;
42704;SDS011;28342;42.594;23.414;2023-07-28T12:26:06;3.10;;;1.88;;
42704;SDS011;28342;42.594;23.414;2023-07-28T12:28:32;3.70;;;2.33;;
42704;SDS011;28342;42.594;23.414;2023-07-28T12:31:00;3.45;;;1.77;;
42704;SDS011;28342;42.594;23.414;2023-07-28T12:33:26;2.15;;;1.77;;
42704;SDS011;28342;42.594;23.414;2023-07-28T12:36:09;3.15;;;2.03;;
42704;SDS011;28342;42.594;23.414;2023-07-28T13:41:21;2.53;;;1.65;;
42704;SDS011;28342;42.594;23.414;2023-07-28T14:09:01;2.65;;;2.00;;
42704;SDS011;28342;42.594;23.414;2023-07-28T18:08:02;1.98;;;1.75;;
42704;SDS011;28342;42.594;23.414;2023-07-28T18:47:37;4.25;;;1.98;;
42704;SDS011;28342;42.594;23.414;2023-07-28T20:32:14;2.63;;;1.63;;
42704;SDS011;28342;42.594;23.414;2023-07-28T20:55:51;5.50;;;2.10;;
42704;SDS011;28342;42.594;23.414;2023-07-28T20:59:00;5.65;;;2.22;;
42704;SDS011;28342;42.594;23.414;2023-07-28T21:01:30;5.53;;;2.53;;
42704;SDS011;28342;42.594;23.414;2023-07-28T21:04:01;4.82;;;2.17;;
42704;SDS011;28342;42.594;23.414;2023-07-28T21:06:27;5.82;;;2.80;;
42704;SDS011;28342;42.594;23.414;2023-07-28T21:08:54;10.70;;;3.65;;
42704;SDS011;28342;42.594;23.414;2023-07-28T21:11:20;11.32;;;4.60;;
42704;SDS011;28342;42.594;23.414;2023-07-28T21:13:47;9.80;;;3.42;;
42704;SDS011;28342;42.594;23.414;2023-07-28T21:16:17;10.43;;;4.07;;
42704;SDS011;28342;42.594;23.414;2023-07-28T21:18:43;18.08;;;4.53;;
42704;SDS011;28342;42.594;23.414;2023-07-28T21:21:08;16.08;;;5.28;;
42704;SDS011;28342;42.594;23.414;2023-07-28T21:23:34;19.52;;;5.68;;
42704;SDS011;28342;42.594;23.414;2023-07-28T21:26:01;20.00;;;5.72;;
42704;SDS011;28342;42.594;23.414;2023-07-28T21:28:30;19.40;;;5.40;;
42704;SDS011;28342;42.594;23.414;2023-07-28T21:30:57;16.02;;;5.20;;
42704;SDS011;28342;42.594;23.414;2023-07-28T21:33:26;4.18;;;2.40;;
42704;SDS011;28342;42.594;23.414;2023-07-28T21:35:52;8.18;;;3.10;;
42704;SDS011;28342;42.594;23.414;2023-07-28T21:38:19;7.75;;;2.45;;
42704;SDS011;28342;42.594;23.414;2023-07-28T21:40:46;7.22;;;2.80;;
42704;SDS011;28342;42.594;23.414;2023-07-28T21:43:11;10.15;;;3.92;;
42704;SDS011;28342;42.594;23.414;2023-07-28T21:45:37;5.97;;;2.78;;
42704;SDS011;28342;42.594;23.414;2023-07-28T21:48:03;6.35;;;3.00;;
42704;SDS011;28342;42.594;23.414;2023-07-28T21:50:28;9.20;;;2.67;;
42704;SDS011;28342;42.594;23.414;2023-07-28T21:52:56;5.18;;;2.88;;
42704;SDS011;28342;42.594;23.414;2023-07-28T21:55:22;3.78;;;2.55;;
42704;SDS011;28342;42.594;23.414;2023-07-28T21:57:50;5.53;;;2.42;;
42704;SDS011;28342;42.594;23.414;2023-07-28T22:00:18;5.63;;;2.42;;
42704;SDS011;28342;42.594;23.414;2023-07-28T22:02:44;4.72;;;2.28;;
42704;SDS011;28342;42.594;23.414;2023-07-28T22:05:10;5.05;;;2.63;;
42704;SDS011;28342;42.594;23.414;2023-07-28T22:07:38;7.47;;;3.40;;
42704;SDS011;28342;42.594;23.414;2023-07-28T22:10:05;5.32;;;2.67;;
42704;SDS011;28342;42.594;23.414;2023-07-28T22:12:38;6.05;;;2.88;;
42704;SDS011;28342;42.594;23.414;2023-07-28T22:15:04;6.03;;;2.70;;
42704;SDS011;28342;42.594;23.414;2023-07-28T22:17:30;4.68;;;2.20;;
42704;SDS011;28342;42.594;23.414;2023-07-28T22:19:57;2.20;;;1.92;;
42704;SDS011;28342;42.594;23.414;2023-07-28T22:22:24;2.15;;;1.80;;
42704;SDS011;28342;42.594;23.414;2023-07-28T22:24:52;3.40;;;1.92;;
42704;SDS011;28342;42.594;23.414;2023-07-28T22:27:21;3.67;;;2.10;;
42704;SDS011;28342;42.594;23.414;2023-07-28T22:29:48;3.97;;;2.53;;
42704;SDS011;28342;42.594;23.414;2023-07-28T22:32:18;2.45;;;1.55;;
42704;SDS011;28342;42.594;23.414;2023-07-28T22:34:46;3.47;;;2.22;;
42704;SDS011;28342;42.594;23.414;2023-07-28T22:37:19;1.60;;;1.50;;
42704;SDS011;28342;42.594;23.414;2023-07-28T22:40:05;3.30;;;1.77;;
42704;SDS011;28342;42.594;23.414;2023-07-28T22:42:32;5.15;;;2.00;;
42704;SDS011;28342;42.594;23.414;2023-07-28T22:45:00;4.78;;;2.55;;
42704;SDS011;28342;42.594;23.414;2023-07-28T22:47:26;2.58;;;2.10;;
42704;SDS011;28342;42.594;23.414;2023-07-28T22:49:54;2.30;;;1.98;;
42704;SDS011;28342;42.594;23.414;2023-07-28T22:52:22;3.38;;;1.63;;
42704;SDS011;28342;42.594;23.414;2023-07-28T22:54:50;3.10;;;1.70;;
42704;SDS011;28342;42.594;23.414;2023-07-28T22:57:16;4.95;;;2.28;;
42704;SDS011;28342;42.594;23.414;2023-07-28T22:59:45;2.42;;;1.67;;
42704;SDS011;28342;42.594;23.414;2023-07-28T23:02:13;2.45;;;1.77;;
42704;SDS011;28342;42.594;23.414;2023-07-28T23:04:40;2.50;;;1.65;;
42704;SDS011;28342;42.594;23.414;2023-07-28T23:07:11;2.08;;;1.83;;
42704;SDS011;28342;42.594;23.414;2023-07-28T23:09:42;1.90;;;1.70;;
42704;SDS011;28342;42.594;23.414;2023-07-28T23:12:09;2.38;;;1.63;;